Time;durP1;ratioP1;P1;durP2;ratioP2;P2;SDS_P1;SDS_P2;PMS_P1;PMS_P2;Temp;Humidity;BMP_temperature;BMP_pressure;BME280_temperature;BME280_humidity;BME280_pressure;Samples;Min_cycle;Max_cycle;Signal;HPM_P1;HPM_P2
2022/11/05 00:09:31;;;;;;;7.90;3.28;;;;;;;;;;4973860;28;20105;-77
2022/11/05 00:17:28;;;;;;;2.97;2.30;;;;;;;;;;4978103;28;20087;-79
2022/11/05 00:19:54;;;;;;;3.40;2.05;;;;;;;;;;4976101;28;20372;-79
2022/11/05 00:25:12;;;;;;;4.45;2.67;;;;;;;;;;4982022;28;20101;-78
2022/11/05 00:27:39;;;;;;;11.57;2.33;;;;;;;;;;4975656;28;20057;-77
2022/11/05 00:30:06;;;;;;;4.82;2.40;;;;;;;;;;4984100;28;20031;-77
2022/11/05 00:32:35;;;;;;;3.05;2.03;;;;;;;;;;4984711;28;20553;-77
2022/11/05 00:35:01;;;;;;;4.50;2.35;;;;;;;;;;4979389;28;20023;-79
2022/11/05 00:37:28;;;;;;;3.80;2.03;;;;;;;;;;4960536;28;20350;-78
2022/11/05 00:39:54;;;;;;;2.38;2.05;;;;;;;;;;4989894;28;20039;-77
2022/11/05 00:45:10;;;;;;;3.80;2.40;;;;;;;;;;4977841;28;20558;-77
2022/11/05 00:50:23;;;;;;;5.25;2.30;;;;;;;;;;4968135;28;20041;-77
2022/11/05 00:52:55;;;;;;;3.35;2.30;;;;;;;;;;4989519;28;20034;-78
2022/11/05 00:55:34;;;;;;;4.10;2.22;;;;;;;;;;4972407;28;20027;-77
2022/11/05 00:58:01;;;;;;;4.60;2.10;;;;;;;;;;4987050;28;20034;-76
2022/11/05 01:00:30;;;;;;;5.22;2.70;;;;;;;;;;4975110;28;20061;-77
2022/11/05 01:02:59;;;;;;;4.75;2.20;;;;;;;;;;4985121;28;20026;-78
2022/11/05 01:05:27;;;;;;;8.15;4.55;;;;;;;;;;4976375;28;20051;-77
2022/11/05 01:07:53;;;;;;;3.47;2.30;;;;;;;;;;4977409;28;20598;-78
2022/11/05 01:10:20;;;;;;;4.45;2.40;;;;;;;;;;4976376;28;20503;-77
2022/11/05 01:12:48;;;;;;;5.03;2.25;;;;;;;;;;4958551;28;20031;-77
2022/11/05 01:15:14;;;;;;;6.43;2.42;;;;;;;;;;4976817;28;20399;-77
2022/11/05 01:17:41;;;;;;;6.55;2.28;;;;;;;;;;4967939;28;20106;-77
2022/11/05 01:20:12;;;;;;;9.98;2.60;;;;;;;;;;4974457;28;20050;-77
2022/11/05 01:22:38;;;;;;;4.25;2.28;;;;;;;;;;4993007;28;20037;-77
2022/11/05 01:25:06;;;;;;;4.38;2.30;;;;;;;;;;4989064;28;20034;-77
2022/11/05 01:27:32;;;;;;;4.10;2.70;;;;;;;;;;4985308;28;20023;-77
2022/11/05 01:29:58;;;;;;;4.43;2.60;;;;;;;;;;4966424;28;20027;-77
2022/11/05 01:32:25;;;;;;;4.05;3.03;;;;;;;;;;4974128;28;20031;-77
2022/11/05 01:34:51;;;;;;;4.28;2.53;;;;;;;;;;4975010;28;20031;-77
2022/11/05 01:37:17;;;;;;;5.80;2.50;;;;;;;;;;4974819;28;20069;-76
2022/11/05 01:39:44;;;;;;;10.57;3.92;;;;;;;;;;4963333;28;20059;-77
2022/11/05 01:42:24;;;;;;;6.10;3.40;;;;;;;;;;4973950;28;20058;-77
2022/11/05 01:44:55;;;;;;;3.72;2.78;;;;;;;;;;4968631;28;20035;-80
2022/11/05 01:47:40;;;;;;;6.25;3.03;;;;;;;;;;4984246;28;20473;-77
2022/11/05 01:50:18;;;;;;;7.70;3.10;;;;;;;;;;4974211;28;20023;-77
2022/11/05 01:52:45;;;;;;;7.25;2.70;;;;;;;;;;4984528;28;20033;-76
2022/11/05 01:55:12;;;;;;;5.32;2.50;;;;;;;;;;4982305;28;20100;-77
2022/11/05 01:57:39;;;;;;;5.20;2.70;;;;;;;;;;4990460;28;20395;-77
2022/11/05 02:00:06;;;;;;;7.53;3.67;;;;;;;;;;4975349;28;20425;-77
2022/11/05 02:02:33;;;;;;;8.63;3.63;;;;;;;;;;4987721;28;20503;-77
2022/11/05 02:05:03;;;;;;;4.45;2.47;;;;;;;;;;4946846;28;1263348;-77
2022/11/05 02:07:29;;;;;;;10.98;3.08;;;;;;;;;;4969277;28;20126;-76
2022/11/05 02:10:16;;;;;;;7.85;2.63;;;;;;;;;;4974132;28;20030;-76
2022/11/05 02:12:44;;;;;;;4.32;2.53;;;;;;;;;;4984136;28;20111;-80
2022/11/05 02:15:21;;;;;;;5.13;2.50;;;;;;;;;;4963622;28;20031;-77
2022/11/05 02:17:54;;;;;;;5.95;2.33;;;;;;;;;;4988976;28;20030;-77
2022/11/05 02:20:39;;;;;;;7.28;2.75;;;;;;;;;;4975652;28;20031;-78
2022/11/05 02:23:05;;;;;;;6.47;2.70;;;;;;;;;;4990575;28;20110;-78
2022/11/05 02:25:47;;;;;;;4.05;2.40;;;;;;;;;;4992851;28;20042;-78
2022/11/05 02:28:13;;;;;;;6.32;2.85;;;;;;;;;;4970080;28;20432;-78
2022/11/05 02:30:48;;;;;;;6.78;2.65;;;;;;;;;;4970099;28;20086;-76
2022/11/05 02:33:22;;;;;;;4.55;2.58;;;;;;;;;;4979765;28;20426;-77
2022/11/05 02:36:00;;;;;;;7.07;3.05;;;;;;;;;;4976201;28;20035;-77
2022/11/05 02:38:26;;;;;;;7.20;2.58;;;;;;;;;;4983626;28;20035;-77
2022/11/05 02:41:01;;;;;;;4.40;2.22;;;;;;;;;;4973188;28;20377;-80
2022/11/05 02:43:36;;;;;;;4.78;2.50;;;;;;;;;;4988253;28;20018;-77
2022/11/05 02:46:25;;;;;;;6.13;2.30;;;;;;;;;;4990664;28;20054;-77
2022/11/05 02:48:51;;;;;;;6.88;2.33;;;;;;;;;;4978109;28;20023;-78
2022/11/05 02:51:33;;;;;;;11.10;2.60;;;;;;;;;;4987812;28;20468;-78
2022/11/05 02:54:12;;;;;;;8.32;2.20;;;;;;;;;;4973832;28;20032;-78
2022/11/05 02:56:44;;;;;;;5.47;2.40;;;;;;;;;;4979337;28;20456;-77
2022/11/05 02:59:10;;;;;;;7.15;2.55;;;;;;;;;;4975860;28;20084;-78
2022/11/05 03:01:41;;;;;;;5.88;2.30;;;;;;;;;;4978847;28;20059;-77
2022/11/05 03:04:09;;;;;;;6.38;2.15;;;;;;;;;;4972988;28;20042;-78
2022/11/05 03:06:38;;;;;;;8.77;2.75;;;;;;;;;;4975051;28;20058;-78
2022/11/05 03:09:20;;;;;;;4.47;2.30;;;;;;;;;;4965064;28;20026;-77
2022/11/05 03:12:04;;;;;;;4.80;2.25;;;;;;;;;;4981868;28;20023;-77
2022/11/05 03:14:49;;;;;;;5.53;2.38;;;;;;;;;;4970105;28;20023;-77
2022/11/05 03:17:23;;;;;;;5.90;2.33;;;;;;;;;;4969285;28;20377;-76
2022/11/05 03:19:54;;;;;;;3.25;2.15;;;;;;;;;;4980107;28;20114;-77
2022/11/05 03:22:23;;;;;;;4.03;2.22;;;;;;;;;;4968851;28;20038;-76
2022/11/05 03:24:52;;;;;;;3.03;1.90;;;;;;;;;;4973450;28;20492;-76
2022/11/05 03:27:22;;;;;;;2.42;1.75;;;;;;;;;;4986771;28;20029;-76
2022/11/05 03:29:51;;;;;;;4.32;2.05;;;;;;;;;;4975436;28;20037;-77
2022/11/05 03:32:19;;;;;;;4.68;2.13;;;;;;;;;;4981046;28;20039;-77
2022/11/05 03:34:47;;;;;;;8.23;2.33;;;;;;;;;;4972523;28;20531;-76
2022/11/05 03:37:14;;;;;;;5.07;1.80;;;;;;;;;;4969634;28;20029;-76
2022/11/05 03:39:41;;;;;;;3.83;1.50;;;;;;;;;;4982581;28;20077;-75
2022/11/05 03:42:09;;;;;;;2.72;1.48;;;;;;;;;;4970555;28;20465;-75
2022/11/05 03:44:37;;;;;;;7.15;1.70;;;;;;;;;;4989914;28;20391;-76
2022/11/05 03:47:05;;;;;;;1.67;1.42;;;;;;;;;;4982866;28;20027;-76
2022/11/05 03:49:35;;;;;;;5.25;1.83;;;;;;;;;;4962168;28;20015;-76
2022/11/05 03:52:10;;;;;;;1.40;1.30;;;;;;;;;;4987727;28;20023;-76
2022/11/05 03:54:36;;;;;;;;;;;;;;;;;;4969221;28;20043;-76
2022/11/05 03:57:02;;;;;;;;;;;;;;;;;;4974360;28;20356;-76
2022/11/05 03:59:28;;;;;;;;;;;;;;;;;;4959322;28;19910;-77
2022/11/05 04:01:54;;;;;;;;;;;;;;;;;;4972358;28;19925;-75
2022/11/05 04:04:20;;;;;;;1.50;1.40;;;;;;;;;;4969172;28;19925;-76
2022/11/05 04:15:00;;;;;;;1.63;1.52;;;;;;;;;;4973095;28;20034;-76
2022/11/05 04:17:26;;;;;;;1.80;1.52;;;;;;;;;;4988276;28;20114;-77
2022/11/05 04:25:24;;;;;;;1.75;1.40;;;;;;;;;;4979616;28;19917;-79
2022/11/05 04:27:50;;;;;;;1.98;1.50;;;;;;;;;;4985331;28;20053;-76
2022/11/05 04:30:18;;;;;;;4.68;1.80;;;;;;;;;;4978929;28;20369;-76
2022/11/05 04:32:56;;;;;;;1.63;1.40;;;;;;;;;;4976164;28;20169;-76
2022/11/05 04:35:22;;;;;;;3.53;1.83;;;;;;;;;;4978441;28;20085;-76
2022/11/05 04:37:49;;;;;;;2.47;2.28;;;;;;;;;;4998252;28;20038;-75
2022/11/05 04:40:15;;;;;;;1.63;1.40;;;;;;;;;;4959890;28;20058;-76
2022/11/05 04:42:41;;;;;;;1.55;1.45;;;;;;;;;;4978734;28;20041;-80
2022/11/05 04:45:10;;;;;;;2.65;2.42;;;;;;;;;;4972343;28;20113;-77
2022/11/05 04:47:36;;;;;;;1.77;1.50;;;;;;;;;;4991544;28;20022;-77
2022/11/05 04:50:04;;;;;;;3.70;1.50;;;;;;;;;;4986567;28;20023;-76
2022/11/05 04:52:30;;;;;;;1.75;1.65;;;;;;;;;;5002704;28;20019;-77
2022/11/05 04:54:56;;;;;;;4.82;1.85;;;;;;;;;;4971385;28;20023;-76
2022/11/05 04:57:22;;;;;;;2.67;1.67;;;;;;;;;;4984110;28;20026;-76
2022/11/05 04:59:48;;;;;;;5.70;1.75;;;;;;;;;;4973034;28;20066;-76
2022/11/05 05:02:14;;;;;;;3.03;1.60;;;;;;;;;;4976976;28;20360;-76
2022/11/05 05:04:41;;;;;;;1.73;1.30;;;;;;;;;;4975468;28;20101;-76
2022/11/05 05:07:07;;;;;;;2.85;1.52;;;;;;;;;;4961867;28;20033;-76
2022/11/05 05:09:33;;;;;;;2.85;1.48;;;;;;;;;;4986682;28;20436;-76
2022/11/05 05:12:00;;;;;;;2.83;1.30;;;;;;;;;;4973936;28;20058;-75
2022/11/05 05:14:26;;;;;;;1.50;1.40;;;;;;;;;;4982845;28;20030;-77
2022/11/05 05:16:52;;;;;;;1.60;1.40;;;;;;;;;;4974411;28;20035;-77
2022/11/05 05:19:18;;;;;;;1.60;1.50;;;;;;;;;;4986475;28;20031;-76
2022/11/05 05:21:44;;;;;;;1.55;1.38;;;;;;;;;;4990336;28;20045;-76
2022/11/05 05:24:11;;;;;;;2.33;1.20;;;;;;;;;;4987310;28;20467;-77
2022/11/05 05:26:39;;;;;;;1.27;1.23;;;;;;;;;;4974617;28;20027;-76
2022/11/05 05:29:05;;;;;;;1.42;1.33;;;;;;;;;;4974236;28;20034;-77
2022/11/05 05:31:33;;;;;;;1.15;1.08;;;;;;;;;;4967246;28;20027;-77
2022/11/05 05:33:59;;;;;;;1.30;1.10;;;;;;;;;;4997644;28;20027;-77
2022/11/05 05:36:25;;;;;;;1.15;1.15;;;;;;;;;;4987372;28;20262;-76
2022/11/05 05:38:51;;;;;;;1.30;1.20;;;;;;;;;;4985414;28;20042;-76
2022/11/05 05:41:18;;;;;;;1.60;1.40;;;;;;;;;;4974607;28;20126;-77
2022/11/05 05:43:44;;;;;;;1.80;1.50;;;;;;;;;;4974132;28;20093;-77
2022/11/05 05:46:11;;;;;;;2.08;1.30;;;;;;;;;;4972940;28;20042;-76
2022/11/05 05:48:38;;;;;;;5.00;1.50;;;;;;;;;;4975105;28;20031;-77
2022/11/05 05:51:08;;;;;;;2.75;1.40;;;;;;;;;;4990242;28;20061;-76
2022/11/05 05:53:35;;;;;;;3.40;1.50;;;;;;;;;;4973668;28;20079;-76
2022/11/05 05:56:01;;;;;;;2.53;1.42;;;;;;;;;;4974864;28;20035;-77
2022/11/05 05:58:31;;;;;;;2.58;1.58;;;;;;;;;;4971003;28;20023;-76
2022/11/05 06:01:00;;;;;;;1.65;1.38;;;;;;;;;;4965034;28;20514;-75
2022/11/05 06:03:26;;;;;;;2.70;2.13;;;;;;;;;;4965528;28;20518;-76
2022/11/05 06:05:52;;;;;;;1.45;1.30;;;;;;;;;;4967953;28;20471;-76
2022/11/05 06:08:18;;;;;;;1.50;1.40;;;;;;;;;;4968920;28;20051;-75
2022/11/05 06:10:53;;;;;;;1.40;1.30;;;;;;;;;;4970641;28;20034;-75
2022/11/05 06:13:19;;;;;;;2.58;1.40;;;;;;;;;;4964385;28;20066;-76
2022/11/05 06:15:45;;;;;;;1.40;1.30;;;;;;;;;;4979599;28;20042;-77
2022/11/05 06:18:11;;;;;;;1.65;1.55;;;;;;;;;;4971341;28;21435;-78
2022/11/05 06:20:38;;;;;;;2.00;1.33;;;;;;;;;;4966587;28;20054;-77
2022/11/05 06:23:04;;;;;;;2.78;1.35;;;;;;;;;;4971445;28;20740;-77
2022/11/05 06:25:30;;;;;;;1.30;1.20;;;;;;;;;;4981243;28;20035;-75
2022/11/05 06:27:56;;;;;;;1.65;1.23;;;;;;;;;;4963908;28;20370;-76
2022/11/05 06:30:22;;;;;;;1.92;1.40;;;;;;;;;;4969193;28;20019;-77
2022/11/05 06:32:49;;;;;;;1.77;1.40;;;;;;;;;;4964934;28;20369;-77
2022/11/05 06:35:15;;;;;;;3.53;1.33;;;;;;;;;;4976111;28;20509;-76
2022/11/05 06:37:41;;;;;;;2.70;1.58;;;;;;;;;;4965147;28;20038;-78
2022/11/05 06:40:08;;;;;;;1.70;1.50;;;;;;;;;;4964317;28;20038;-76
2022/11/05 06:42:35;;;;;;;1.00;1.00;;;;;;;;;;4968118;28;20031;-76
2022/11/05 06:45:01;;;;;;;1.48;1.35;;;;;;;;;;4983145;28;20101;-77
2022/11/05 06:47:27;;;;;;;1.33;1.17;;;;;;;;;;4967542;28;20037;-77
2022/11/05 06:49:53;;;;;;;1.10;1.10;;;;;;;;;;4977999;28;20027;-79
2022/11/05 06:52:19;;;;;;;1.95;1.55;;;;;;;;;;4967852;28;20038;-76
2022/11/05 06:54:45;;;;;;;1.40;1.30;;;;;;;;;;4967853;28;20030;-77
2022/11/05 06:57:12;;;;;;;1.20;1.10;;;;;;;;;;4963248;28;20059;-79
2022/11/05 06:59:38;;;;;;;1.05;1.05;;;;;;;;;;4962016;28;20042;-76
2022/11/05 07:02:05;;;;;;;1.17;1.10;;;;;;;;;;4974006;28;20034;-77
2022/11/05 07:04:31;;;;;;;1.35;1.25;;;;;;;;;;4962514;28;20047;-76
2022/11/05 07:07:00;;;;;;;0.98;0.98;;;;;;;;;;4967118;28;20026;-76
2022/11/05 07:09:27;;;;;;;3.03;1.40;;;;;;;;;;4979495;28;20023;-76
2022/11/05 07:11:54;;;;;;;1.35;1.30;;;;;;;;;;4978256;28;20031;-76
2022/11/05 07:14:20;;;;;;;1.20;1.20;;;;;;;;;;4967247;28;20033;-76
2022/11/05 07:16:46;;;;;;;1.40;1.30;;;;;;;;;;4981922;28;20049;-76
2022/11/05 07:19:12;;;;;;;1.67;1.38;;;;;;;;;;4968541;28;20026;-77
2022/11/05 07:21:38;;;;;;;0.95;0.88;;;;;;;;;;4960294;28;20541;-78
2022/11/05 07:24:05;;;;;;;1.40;1.30;;;;;;;;;;4963631;28;20511;-78
2022/11/05 07:26:31;;;;;;;3.55;1.63;;;;;;;;;;4975632;28;20043;-78
2022/11/05 07:28:57;;;;;;;1.20;1.20;;;;;;;;;;4962406;28;20050;-77
2022/11/05 07:31:23;;;;;;;1.65;1.38;;;;;;;;;;4966604;28;20031;-77
2022/11/05 07:33:50;;;;;;;0.90;0.90;;;;;;;;;;4963770;28;20074;-77
2022/11/05 07:36:16;;;;;;;1.45;1.35;;;;;;;;;;4966853;28;20366;-77
2022/11/05 07:38:43;;;;;;;1.33;1.10;;;;;;;;;;4968051;28;20034;-77
2022/11/05 07:41:09;;;;;;;1.52;1.10;;;;;;;;;;4967898;28;20030;-77
2022/11/05 07:43:35;;;;;;;1.20;1.10;;;;;;;;;;4963755;28;20058;-78
2022/11/05 07:46:01;;;;;;;1.50;1.40;;;;;;;;;;4964768;28;20142;-77
2022/11/05 07:48:27;;;;;;;1.02;1.02;;;;;;;;;;4964698;28;20034;-75
2022/11/05 07:50:53;;;;;;;1.17;0.98;;;;;;;;;;4966206;28;20039;-77
2022/11/05 07:53:20;;;;;;;1.05;1.05;;;;;;;;;;4981259;28;20042;-78
2022/11/05 07:55:46;;;;;;;2.53;1.60;;;;;;;;;;4982377;28;20051;-76
2022/11/05 07:58:13;;;;;;;1.10;1.00;;;;;;;;;;4964739;28;20062;-76
2022/11/05 08:00:39;;;;;;;0.95;0.95;;;;;;;;;;4985556;28;20039;-78
2022/11/05 08:03:12;;;;;;;0.98;0.98;;;;;;;;;;4983210;28;20070;-79
2022/11/05 08:05:39;;;;;;;1.10;1.10;;;;;;;;;;4971783;28;20054;-75
2022/11/05 08:08:09;;;;;;;1.00;1.00;;;;;;;;;;4969065;28;20023;-76
2022/11/05 08:10:35;;;;;;;2.28;1.25;;;;;;;;;;4972025;28;20066;-76
2022/11/05 08:13:01;;;;;;;1.38;1.10;;;;;;;;;;4970933;28;20031;-77
2022/11/05 08:15:27;;;;;;;1.30;1.20;;;;;;;;;;4984788;28;20031;-76
2022/11/05 08:17:57;;;;;;;1.67;1.40;;;;;;;;;;4971028;28;20038;-76
2022/11/05 08:20:24;;;;;;;1.13;1.13;;;;;;;;;;4983722;28;20061;-76
2022/11/05 08:22:50;;;;;;;1.42;1.33;;;;;;;;;;4983154;28;20038;-76
2022/11/05 08:25:16;;;;;;;1.67;1.58;;;;;;;;;;4971952;28;20050;-76
2022/11/05 08:27:42;;;;;;;2.25;1.33;;;;;;;;;;4982957;28;20035;-77
2022/11/05 08:30:09;;;;;;;3.50;1.38;;;;;;;;;;4970402;28;20050;-76
2022/11/05 08:32:35;;;;;;;1.25;1.20;;;;;;;;;;4986953;28;20034;-77
2022/11/05 08:35:01;;;;;;;2.03;1.30;;;;;;;;;;4972841;28;20035;-78
2022/11/05 08:37:27;;;;;;;2.95;1.50;;;;;;;;;;4972898;28;20047;-77
2022/11/05 08:39:53;;;;;;;1.60;1.33;;;;;;;;;;4973532;28;20456;-78
2022/11/05 08:42:19;;;;;;;1.30;1.27;;;;;;;;;;4974388;28;20041;-76
2022/11/05 08:44:46;;;;;;;1.25;1.20;;;;;;;;;;4973069;28;20038;-77
2022/11/05 08:47:12;;;;;;;1.40;1.30;;;;;;;;;;4968971;28;20097;-77
2022/11/05 08:49:38;;;;;;;0.90;0.90;;;;;;;;;;4986169;28;20047;-78
2022/11/05 08:52:04;;;;;;;1.55;1.27;;;;;;;;;;4969973;28;20035;-77
2022/11/05 08:54:30;;;;;;;1.40;1.30;;;;;;;;;;4972070;28;20069;-77
2022/11/05 08:56:56;;;;;;;1.80;1.27;;;;;;;;;;4971136;28;20122;-77
2022/11/05 08:59:22;;;;;;;1.23;1.23;;;;;;;;;;4969474;28;20030;-78
2022/11/05 09:01:49;;;;;;;2.25;1.63;;;;;;;;;;4983647;28;20069;-77
2022/11/05 09:04:15;;;;;;;1.50;1.40;;;;;;;;;;4965112;28;20043;-79
2022/11/05 09:06:41;;;;;;;1.90;1.70;;;;;;;;;;4969027;28;20030;-79
2022/11/05 09:09:07;;;;;;;2.67;1.92;;;;;;;;;;4984100;28;20027;-79
2022/11/05 09:11:33;;;;;;;1.70;1.60;;;;;;;;;;4970964;28;20142;-79
2022/11/05 09:13:59;;;;;;;1.85;1.70;;;;;;;;;;4986845;28;20031;-77
2022/11/05 09:16:26;;;;;;;1.77;1.60;;;;;;;;;;4969076;28;20027;-80
2022/11/05 09:18:55;;;;;;;1.70;1.60;;;;;;;;;;4983331;28;20068;-78
2022/11/05 09:21:21;;;;;;;1.63;1.50;;;;;;;;;;4983433;28;20110;-78
2022/11/05 09:23:48;;;;;;;1.50;1.40;;;;;;;;;;4974031;28;20141;-78
2022/11/05 09:26:14;;;;;;;3.53;2.00;;;;;;;;;;4984782;28;20054;-76
2022/11/05 09:28:42;;;;;;;1.60;1.50;;;;;;;;;;4984489;28;20037;-77
2022/11/05 09:31:09;;;;;;;2.20;1.85;;;;;;;;;;4970315;28;20053;-76
2022/11/05 09:33:36;;;;;;;2.15;1.60;;;;;;;;;;4970932;28;20027;-76
2022/11/05 09:36:03;;;;;;;2.33;1.52;;;;;;;;;;4970421;28;20039;-77
2022/11/05 09:38:29;;;;;;;1.20;1.20;;;;;;;;;;4986353;28;20026;-76
2022/11/05 09:41:04;;;;;;;2.60;1.50;;;;;;;;;;4967683;28;20105;-76
2022/11/05 09:43:33;;;;;;;2.08;1.70;;;;;;;;;;4984434;28;20035;-76
2022/11/05 09:46:03;;;;;;;10.15;2.50;;;;;;;;;;4985679;28;20054;-78
2022/11/05 09:48:30;;;;;;;12.77;3.05;;;;;;;;;;4968378;28;20050;-75
2022/11/05 09:50:57;;;;;;;12.35;4.50;;;;;;;;;;4984515;28;20050;-77
2022/11/05 09:53:23;;;;;;;16.05;3.90;;;;;;;;;;4968230;28;20031;-76
2022/11/05 09:55:57;;;;;;;10.82;3.55;;;;;;;;;;4982490;28;20029;-75
2022/11/05 09:58:23;;;;;;;11.85;4.35;;;;;;;;;;4968614;28;20026;-79
2022/11/05 10:00:51;;;;;;;10.55;4.15;;;;;;;;;;4968568;28;20026;-76
2022/11/05 10:03:22;;;;;;;9.35;2.85;;;;;;;;;;4966829;28;20045;-77
2022/11/05 10:05:52;;;;;;;11.52;4.13;;;;;;;;;;4967643;28;20062;-75
2022/11/05 10:08:18;;;;;;;11.20;3.60;;;;;;;;;;4968091;28;20579;-78
2022/11/05 10:10:47;;;;;;;15.35;4.25;;;;;;;;;;4981415;28;20122;-75
2022/11/05 10:13:20;;;;;;;12.63;3.75;;;;;;;;;;4968976;28;20026;-76
2022/11/05 10:16:04;;;;;;;16.38;5.47;;;;;;;;;;4985400;28;20131;-77
2022/11/05 10:18:33;;;;;;;12.98;3.45;;;;;;;;;;4983202;28;20407;-76
2022/11/05 10:20:59;;;;;;;23.42;3.85;;;;;;;;;;4967672;28;20400;-78
2022/11/05 10:23:26;;;;;;;20.05;4.22;;;;;;;;;;4982246;28;20035;-75
2022/11/05 10:25:54;;;;;;;18.67;6.43;;;;;;;;;;4968320;28;20039;-76
2022/11/05 10:28:22;;;;;;;18.98;5.50;;;;;;;;;;4968340;28;20078;-77
2022/11/05 10:30:51;;;;;;;20.30;4.22;;;;;;;;;;4984105;28;20110;-79
2022/11/05 10:33:24;;;;;;;15.35;5.70;;;;;;;;;;4969796;28;20049;-77
2022/11/05 10:35:52;;;;;;;12.73;3.10;;;;;;;;;;4966720;28;20030;-75
2022/11/05 10:38:18;;;;;;;17.02;6.15;;;;;;;;;;4967885;28;20804;-76
2022/11/05 10:40:58;;;;;;;21.92;4.25;;;;;;;;;;4967316;28;20042;-76
2022/11/05 10:43:30;;;;;;;21.80;5.65;;;;;;;;;;4983209;28;20475;-76
2022/11/05 10:46:05;;;;;;;10.65;4.35;;;;;;;;;;4982717;28;20134;-79
2022/11/05 10:48:31;;;;;;;13.75;5.20;;;;;;;;;;4982450;28;20023;-76
2022/11/05 10:50:58;;;;;;;19.48;5.43;;;;;;;;;;4969594;28;20031;-81
2022/11/05 10:53:32;;;;;;;18.27;4.53;;;;;;;;;;4983425;28;20031;-76
2022/11/05 10:55:59;;;;;;;12.07;4.65;;;;;;;;;;4970783;28;20049;-77
2022/11/05 10:58:27;;;;;;;20.42;5.22;;;;;;;;;;4979430;28;20042;-77
2022/11/05 11:00:55;;;;;;;19.85;3.88;;;;;;;;;;4973058;28;20045;-78
2022/11/05 11:03:30;;;;;;;15.70;5.35;;;;;;;;;;4977996;28;20041;-79
2022/11/05 11:06:13;;;;;;;14.57;3.90;;;;;;;;;;4967416;28;20057;-81
2022/11/05 11:08:43;;;;;;;14.98;3.95;;;;;;;;;;4967861;28;20799;-76
2022/11/05 11:11:11;;;;;;;20.13;5.07;;;;;;;;;;4964709;28;20041;-78
2022/11/05 11:13:50;;;;;;;19.15;5.53;;;;;;;;;;4966706;28;20023;-75
2022/11/05 11:16:19;;;;;;;17.38;4.15;;;;;;;;;;4964006;28;20029;-75
2022/11/05 11:18:45;;;;;;;11.75;4.18;;;;;;;;;;4965103;28;20065;-75
2022/11/05 11:21:13;;;;;;;15.30;5.18;;;;;;;;;;4966176;28;20721;-75
2022/11/05 11:23:40;;;;;;;14.82;4.47;;;;;;;;;;4967238;28;20102;-77
2022/11/05 11:26:07;;;;;;;17.90;4.35;;;;;;;;;;4966704;28;20042;-75
2022/11/05 11:28:44;;;;;;;20.02;5.82;;;;;;;;;;4964977;28;20233;-77
2022/11/05 11:31:23;;;;;;;25.73;6.13;;;;;;;;;;4967045;28;20035;-76
2022/11/05 11:33:51;;;;;;;17.23;5.78;;;;;;;;;;4980116;28;20573;-75
2022/11/05 11:36:19;;;;;;;17.38;4.30;;;;;;;;;;4968493;28;20387;-74
2022/11/05 11:38:45;;;;;;;15.25;5.65;;;;;;;;;;4976673;28;20121;-74
2022/11/05 11:41:24;;;;;;;15.18;5.18;;;;;;;;;;4965032;28;20451;-73
2022/11/05 11:43:54;;;;;;;13.52;4.05;;;;;;;;;;4968093;28;20018;-76
2022/11/05 11:46:20;;;;;;;12.93;5.00;;;;;;;;;;4969471;28;20035;-78
2022/11/05 11:48:47;;;;;;;18.58;4.00;;;;;;;;;;4969733;28;20443;-75
2022/11/05 11:51:19;;;;;;;14.75;4.95;;;;;;;;;;4968230;28;20041;-79
2022/11/05 11:53:47;;;;;;;13.68;4.53;;;;;;;;;;4969775;28;20086;-77
2022/11/05 11:56:20;;;;;;;17.15;5.10;;;;;;;;;;4968826;28;20066;-77
2022/11/05 11:58:47;;;;;;;16.42;4.30;;;;;;;;;;4970492;28;20055;-77
2022/11/05 12:01:20;;;;;;;8.90;3.67;;;;;;;;;;4968810;28;20030;-76
2022/11/05 12:03:46;;;;;;;14.75;3.70;;;;;;;;;;4968924;28;20482;-76
2022/11/05 12:06:12;;;;;;;16.20;4.65;;;;;;;;;;4966666;28;20046;-77
2022/11/05 12:09:02;;;;;;;14.20;4.05;;;;;;;;;;4970399;28;20035;-78
2022/11/05 12:11:35;;;;;;;15.02;3.92;;;;;;;;;;4959203;28;20381;-76
2022/11/05 12:14:04;;;;;;;14.02;4.55;;;;;;;;;;4968794;28;20808;-77
2022/11/05 12:16:30;;;;;;;15.30;3.85;;;;;;;;;;4983195;28;20089;-76
2022/11/05 12:19:14;;;;;;;17.42;5.13;;;;;;;;;;4970549;28;20023;-76
2022/11/05 12:21:44;;;;;;;14.70;5.30;;;;;;;;;;4985660;28;20034;-79
2022/11/05 12:24:19;;;;;;;15.13;4.32;;;;;;;;;;4973142;28;20027;-79
2022/11/05 12:26:52;;;;;;;16.58;3.92;;;;;;;;;;4962943;28;20031;-77
2022/11/05 12:29:28;;;;;;;11.57;4.10;;;;;;;;;;4970973;28;20456;-77
2022/11/05 12:32:12;;;;;;;14.70;4.03;;;;;;;;;;4963799;28;20067;-76
2022/11/05 12:34:50;;;;;;;14.18;4.07;;;;;;;;;;4983548;28;20472;-77
2022/11/05 12:37:20;;;;;;;14.35;4.13;;;;;;;;;;4971753;28;20022;-75
2022/11/05 12:39:49;;;;;;;17.33;3.88;;;;;;;;;;4983013;28;20476;-76
2022/11/05 12:42:27;;;;;;;15.32;3.50;;;;;;;;;;4973289;28;20026;-77
2022/11/05 12:44:53;;;;;;;14.50;4.07;;;;;;;;;;4978302;28;20058;-76
2022/11/05 12:47:23;;;;;;;14.15;4.30;;;;;;;;;;4970529;28;20029;-74
2022/11/05 12:49:59;;;;;;;14.85;3.63;;;;;;;;;;4982514;28;20030;-75
2022/11/05 12:52:25;;;;;;;10.10;4.25;;;;;;;;;;4977690;28;20055;-76
2022/11/05 12:55:09;;;;;;;12.30;4.05;;;;;;;;;;4969850;28;20494;-75
2022/11/05 12:57:38;;;;;;;11.43;4.03;;;;;;;;;;4987588;28;20030;-76
2022/11/05 13:00:09;;;;;;;13.32;4.40;;;;;;;;;;4969767;28;20558;-75
2022/11/05 13:02:35;;;;;;;11.10;3.50;;;;;;;;;;4964827;28;20072;-75
2022/11/05 13:05:16;;;;;;;12.30;3.53;;;;;;;;;;4968401;28;20518;-77
2022/11/05 13:08:03;;;;;;;10.98;3.33;;;;;;;;;;4963009;28;20031;-73
2022/11/05 13:10:50;;;;;;;13.23;3.53;;;;;;;;;;4972966;28;20035;-76
2022/11/05 13:13:32;;;;;;;14.02;3.40;;;;;;;;;;4978751;28;20029;-72
2022/11/05 13:16:04;;;;;;;12.20;3.20;;;;;;;;;;4972191;28;20074;-76
2022/11/05 13:18:34;;;;;;;17.70;6.57;;;;;;;;;;4972423;28;20084;-75
2022/11/05 13:21:01;;;;;;;10.35;3.67;;;;;;;;;;4971639;28;20045;-75
2022/11/05 13:23:27;;;;;;;11.93;3.17;;;;;;;;;;4968545;28;20025;-75
2022/11/05 13:25:57;;;;;;;12.60;4.68;;;;;;;;;;4970127;28;20058;-73
2022/11/05 13:28:23;;;;;;;13.27;3.53;;;;;;;;;;4961412;28;20030;-73
2022/11/05 13:30:55;;;;;;;10.38;3.83;;;;;;;;;;4972167;28;20031;-77
2022/11/05 13:33:32;;;;;;;11.45;3.67;;;;;;;;;;4970336;28;20435;-75
2022/11/05 13:39:05;;;;;;;10.82;4.47;;;;;;;;;;4974469;28;20074;-74
2022/11/05 13:41:50;;;;;;;10.45;4.57;;;;;;;;;;4964487;28;20094;-75
2022/11/05 13:44:45;;;;;;;15.60;3.83;;;;;;;;;;4984607;28;20046;-73
2022/11/05 13:47:11;;;;;;;;;;;;;;;;;;4958705;28;20054;-78
2022/11/05 13:49:55;;;;;;;11.20;4.20;;;;;;;;;;4965099;28;19914;-75
2022/11/05 13:52:28;;;;;;;9.90;3.70;;;;;;;;;;4964434;28;20018;-74
2022/11/05 13:55:12;;;;;;;16.50;3.70;;;;;;;;;;4971537;28;20262;-75
2022/11/05 13:57:41;;;;;;;10.57;3.45;;;;;;;;;;4965835;28;20040;-74
2022/11/05 14:00:12;;;;;;;11.65;3.60;;;;;;;;;;4972109;28;20035;-75
2022/11/05 14:02:41;;;;;;;12.95;4.22;;;;;;;;;;4976650;28;20504;-74
2022/11/05 14:05:15;;;;;;;10.38;3.78;;;;;;;;;;4966895;28;20047;-77
2022/11/05 14:07:44;;;;;;;9.68;3.22;;;;;;;;;;4968485;28;20026;-77
2022/11/05 14:10:29;;;;;;;12.43;3.88;;;;;;;;;;4970210;28;20035;-75
2022/11/05 14:12:56;;;;;;;11.87;3.70;;;;;;;;;;4967699;28;20053;-74
2022/11/05 14:15:30;;;;;;;11.48;3.65;;;;;;;;;;4987077;28;20284;-73
2022/11/05 14:17:59;;;;;;;11.48;4.82;;;;;;;;;;4973431;28;20026;-73
2022/11/05 14:20:37;;;;;;;12.95;3.65;;;;;;;;;;4984701;28;20061;-74
2022/11/05 14:23:19;;;;;;;15.73;4.72;;;;;;;;;;4978396;28;20424;-72
2022/11/05 14:25:45;;;;;;;11.55;4.65;;;;;;;;;;4982236;28;20480;-75
2022/11/05 14:28:37;;;;;;;11.80;2.78;;;;;;;;;;4969192;28;20432;-73
2022/11/05 14:31:04;;;;;;;12.80;3.22;;;;;;;;;;4962993;28;20026;-75
2022/11/05 14:33:32;;;;;;;9.90;3.50;;;;;;;;;;4968462;28;20038;-73
2022/11/05 14:36:33;;;;;;;11.45;4.05;;;;;;;;;;4971750;28;20030;-79
2022/11/05 14:39:12;;;;;;;16.45;3.90;;;;;;;;;;4949274;28;20182;-73
2022/11/05 14:41:52;;;;;;;10.32;3.65;;;;;;;;;;4965884;28;20145;-76
2022/11/05 14:44:19;;;;;;;16.55;4.78;;;;;;;;;;4965655;28;20030;-74
2022/11/05 14:46:46;;;;;;;15.60;3.70;;;;;;;;;;4977139;28;20026;-75
2022/11/05 14:49:36;;;;;;;12.23;4.47;;;;;;;;;;4960751;28;20019;-75
2022/11/05 14:52:09;;;;;;;11.20;3.35;;;;;;;;;;4964343;28;20041;-76
2022/11/05 14:54:53;;;;;;;12.32;3.45;;;;;;;;;;4968179;28;20019;-75
2022/11/05 14:57:37;;;;;;;11.88;3.30;;;;;;;;;;4972575;28;20387;-79
2022/11/05 15:00:04;;;;;;;8.20;4.30;;;;;;;;;;4982252;28;20448;-75
2022/11/05 15:02:32;;;;;;;7.95;3.30;;;;;;;;;;4967357;28;20037;-75
2022/11/05 15:05:17;;;;;;;9.90;3.63;;;;;;;;;;4969417;28;20070;-74
2022/11/05 15:07:43;;;;;;;13.52;4.03;;;;;;;;;;4981192;28;20031;-76
2022/11/05 15:10:14;;;;;;;11.82;4.22;;;;;;;;;;4980526;28;20521;-76
2022/11/05 15:13:01;;;;;;;14.77;3.00;;;;;;;;;;4981966;28;20081;-74
2022/11/05 15:15:43;;;;;;;10.73;4.07;;;;;;;;;;4966607;28;20046;-74
2022/11/05 15:18:09;;;;;;;11.15;3.40;;;;;;;;;;4967841;28;20058;-76
2022/11/05 15:20:38;;;;;;;9.70;3.55;;;;;;;;;;4969846;28;20022;-79
2022/11/05 15:23:05;;;;;;;12.13;3.35;;;;;;;;;;4977432;28;20030;-76
2022/11/05 15:25:50;;;;;;;11.32;3.65;;;;;;;;;;4965703;28;20033;-74
2022/11/05 15:28:22;;;;;;;15.95;3.70;;;;;;;;;;4970727;28;20160;-74
2022/11/05 15:30:57;;;;;;;16.38;5.18;;;;;;;;;;4966811;28;20035;-75
2022/11/05 15:33:23;;;;;;;;;;;;;;;;;;4970911;28;20038;-76
2022/11/05 15:35:50;;;;;;;11.82;3.60;;;;;;;;;;4969255;28;19920;-76